Time;durP1;ratioP1;P1;durP2;ratioP2;P2;SDS_P1;SDS_P2;PMS_P1;PMS_P2;Temp;Humidity;BMP_temperature;BMP_pressure;BME280_temperature;BME280_humidity;BME280_pressure;Samples;Min_cycle;Max_cycle;Signal;HPM_P1;HPM_P2
2023/10/21 00:00:42;;;;;;;4.07;1.73;;;10.10;99.90;;;;;;4978391;28;20126;-55
2023/10/21 00:03:09;;;;;;;4.57;1.60;;;10.10;99.90;;;;;;4986297;28;20050;-55
2023/10/21 00:05:37;;;;;;;4.78;2.10;;;10.10;99.90;;;;;;4966802;28;20042;-55
2023/10/21 00:08:05;;;;;;;3.90;1.92;;;10.10;99.90;;;;;;4966740;28;20055;-55
2023/10/21 00:10:33;;;;;;;5.95;1.92;;;10.10;99.90;;;;;;4966522;28;20054;-55
2023/10/21 00:13:01;;;;;;;4.38;2.22;;;10.00;99.90;;;;;;4970723;28;20488;-55
2023/10/21 00:15:29;;;;;;;3.60;2.13;;;10.10;99.90;;;;;;4978719;28;20054;-55
2023/10/21 00:17:57;;;;;;;2.10;1.75;;;10.00;99.90;;;;;;4968808;28;20054;-55
2023/10/21 00:20:25;;;;;;;3.63;1.10;;;10.10;99.90;;;;;;4979239;28;20058;-56
2023/10/21 00:22:55;;;;;;;2.60;1.10;;;10.00;99.90;;;;;;4984976;28;20046;-55
2023/10/21 00:25:23;;;;;;;1.77;1.10;;;10.00;99.90;;;;;;4983252;28;20491;-55
2023/10/21 00:27:51;;;;;;;1.45;0.90;;;10.00;99.90;;;;;;4986002;28;20058;-55
2023/10/21 00:30:19;;;;;;;3.03;1.02;;;10.00;99.90;;;;;;4989489;28;20053;-55
2023/10/21 00:32:47;;;;;;;0.70;0.70;;;10.00;99.90;;;;;;4988412;28;20050;-55
2023/10/21 00:35:15;;;;;;;8.82;1.20;;;10.00;99.90;;;;;;4973282;28;20438;-55
2023/10/21 00:37:42;;;;;;;4.65;1.33;;;10.00;99.90;;;;;;4987729;28;20050;-55
2023/10/21 00:40:11;;;;;;;4.50;1.40;;;10.00;99.90;;;;;;4971479;28;20046;-55
2023/10/21 00:42:38;;;;;;;3.55;1.15;;;10.00;99.90;;;;;;4980895;28;20058;-55
2023/10/21 00:45:07;;;;;;;4.20;1.08;;;10.00;99.90;;;;;;4978310;28;20232;-55
2023/10/21 00:47:34;;;;;;;3.75;0.95;;;9.90;99.90;;;;;;4969810;28;20057;-55
2023/10/21 00:50:03;;;;;;;3.55;1.48;;;9.90;99.90;;;;;;4985832;28;20042;-55
2023/10/21 00:52:32;;;;;;;5.57;1.55;;;9.90;99.90;;;;;;4983707;28;20043;-55
2023/10/21 00:55:02;;;;;;;2.40;1.27;;;9.90;99.90;;;;;;4974142;28;20046;-55
2023/10/21 00:57:29;;;;;;;4.90;1.53;;;9.90;99.90;;;;;;4971362;28;20043;-55
2023/10/21 00:59:57;;;;;;;2.30;0.80;;;9.80;99.90;;;;;;4970434;28;20307;-55
2023/10/21 01:02:25;;;;;;;5.05;1.45;;;9.80;99.90;;;;;;4958658;28;20511;-55
2023/10/21 01:04:53;;;;;;;2.55;0.40;;;9.80;99.90;;;;;;4980587;28;20035;-55
2023/10/21 01:07:20;;;;;;;0.90;0.57;;;9.80;99.90;;;;;;4979671;28;20398;-55
2023/10/21 01:09:50;;;;;;;2.17;0.40;;;9.80;99.90;;;;;;4984197;28;20051;-55
2023/10/21 01:12:17;;;;;;;7.55;0.68;;;9.80;99.90;;;;;;4980943;28;20483;-55
2023/10/21 01:14:45;;;;;;;2.97;0.40;;;9.70;99.90;;;;;;4983430;28;20043;-55
2023/10/21 01:17:13;;;;;;;1.35;0.60;;;9.70;99.90;;;;;;4968128;28;20051;-55
2023/10/21 01:19:41;;;;;;;4.30;0.70;;;9.70;99.90;;;;;;4978131;28;20054;-55
2023/10/21 01:22:08;;;;;;;2.53;1.27;;;9.70;99.90;;;;;;4969477;28;20051;-55
2023/10/21 01:24:36;;;;;;;5.78;0.80;;;9.70;99.90;;;;;;4976336;28;20062;-55
2023/10/21 01:27:04;;;;;;;0.95;0.47;;;9.70;99.90;;;;;;4987278;28;20081;-55
2023/10/21 01:29:32;;;;;;;2.47;0.50;;;9.70;99.90;;;;;;4981217;28;20053;-55
2023/10/21 01:32:00;;;;;;;2.25;0.65;;;9.60;99.90;;;;;;4982796;28;20053;-54
2023/10/21 01:34:28;;;;;;;2.90;0.32;;;9.60;99.90;;;;;;4986463;28;20046;-54
2023/10/21 01:36:55;;;;;;;3.53;0.40;;;9.60;99.90;;;;;;4979874;28;20055;-55
2023/10/21 01:39:23;;;;;;;1.85;0.57;;;9.60;99.90;;;;;;4981021;28;20051;-55
2023/10/21 01:41:50;;;;;;;3.72;0.50;;;9.60;99.90;;;;;;4974490;28;20046;-54
2023/10/21 01:44:19;;;;;;;1.08;0.47;;;9.60;99.90;;;;;;4976943;28;20057;-55
2023/10/21 01:46:47;;;;;;;2.10;0.60;;;9.60;99.90;;;;;;4992151;28;20053;-54
2023/10/21 01:49:14;;;;;;;5.30;0.60;;;9.60;99.90;;;;;;4994340;28;20077;-54
2023/10/21 01:51:42;;;;;;;2.35;0.73;;;9.60;99.90;;;;;;4978894;28;20529;-54
2023/10/21 01:54:10;;;;;;;6.00;0.50;;;9.60;99.90;;;;;;4984636;28;20050;-54
2023/10/21 01:56:38;;;;;;;1.40;0.55;;;9.50;99.90;;;;;;4979011;28;20042;-54
2023/10/21 01:59:06;;;;;;;6.35;0.70;;;9.60;99.90;;;;;;4994774;28;20047;-54
2023/10/21 02:01:34;;;;;;;2.38;0.52;;;9.50;99.90;;;;;;4994106;28;20060;-54
2023/10/21 02:04:05;;;;;;;3.58;1.17;;;9.50;99.90;;;;;;4994125;28;20053;-54
2023/10/21 02:06:32;;;;;;;2.08;0.40;;;9.50;99.90;;;;;;4990771;28;20041;-54
2023/10/21 02:09:00;;;;;;;2.17;0.60;;;9.50;99.90;;;;;;4981411;28;20047;-54
2023/10/21 02:11:28;;;;;;;2.70;0.60;;;9.50;99.90;;;;;;4974932;28;20042;-54
2023/10/21 02:13:55;;;;;;;1.85;0.50;;;9.50;99.90;;;;;;4974376;28;20411;-54
2023/10/21 02:16:26;;;;;;;0.70;0.50;;;9.50;99.90;;;;;;4975198;28;20038;-54
2023/10/21 02:18:54;;;;;;;3.92;0.65;;;9.50;99.90;;;;;;4986328;28;20062;-54
2023/10/21 02:21:22;;;;;;;2.63;0.70;;;9.50;99.90;;;;;;4978997;28;20058;-55
2023/10/21 02:23:49;;;;;;;1.52;0.85;;;9.50;99.90;;;;;;4984561;28;20034;-58
2023/10/21 02:26:17;;;;;;;1.77;0.68;;;9.50;99.90;;;;;;4993885;28;20076;-54
2023/10/21 02:28:45;;;;;;;3.10;1.05;;;9.40;99.90;;;;;;4994775;28;20046;-54
2023/10/21 02:31:20;;;;;;;4.70;1.40;;;9.40;99.90;;;;;;4981061;28;20054;-54
2023/10/21 02:33:47;;;;;;;3.60;0.80;;;9.40;99.90;;;;;;4994977;28;20043;-55
2023/10/21 02:36:15;;;;;;;2.83;1.15;;;9.40;99.90;;;;;;4994776;28;20042;-55
2023/10/21 02:38:43;;;;;;;3.63;0.80;;;9.40;99.90;;;;;;4994806;28;20498;-60
2023/10/21 02:41:10;;;;;;;3.10;0.82;;;9.40;99.90;;;;;;4977970;28;20518;-54
2023/10/21 02:43:38;;;;;;;5.20;1.88;;;9.30;99.90;;;;;;4973811;28;20050;-54
2023/10/21 02:46:08;;;;;;;2.55;0.85;;;9.30;99.90;;;;;;4981754;28;20514;-54
2023/10/21 02:48:36;;;;;;;5.18;0.70;;;9.30;99.90;;;;;;4978486;28;20066;-54
2023/10/21 02:51:09;;;;;;;0.80;0.50;;;9.30;99.90;;;;;;4993202;28;20392;-54
2023/10/21 02:53:37;;;;;;;4.40;1.00;;;9.30;99.90;;;;;;4988807;28;20058;-54
2023/10/21 02:56:08;;;;;;;9.32;2.28;;;9.30;99.90;;;;;;4985818;28;20043;-54
2023/10/21 02:58:37;;;;;;;8.30;1.60;;;9.30;99.90;;;;;;4994213;28;20042;-54
2023/10/21 03:01:16;;;;;;;8.85;1.70;;;9.30;99.90;;;;;;4993330;28;20046;-54
2023/10/21 03:03:44;;;;;;;6.00;0.90;;;9.30;99.90;;;;;;4994337;28;20046;-54
2023/10/21 03:06:13;;;;;;;2.28;0.88;;;9.30;99.90;;;;;;4982793;28;20047;-54
2023/10/21 03:08:41;;;;;;;1.95;0.52;;;9.30;99.90;;;;;;4979009;28;20042;-54
2023/10/21 03:11:10;;;;;;;5.97;1.25;;;9.30;99.90;;;;;;4992778;28;20046;-54
2023/10/21 03:13:38;;;;;;;2.65;0.90;;;9.30;99.90;;;;;;4994090;28;20532;-54
2023/10/21 03:16:09;;;;;;;4.18;1.02;;;9.30;99.90;;;;;;4992626;28;20057;-54
2023/10/21 03:18:38;;;;;;;2.90;1.27;;;9.20;99.90;;;;;;4992768;28;20042;-54
2023/10/21 03:21:06;;;;;;;11.02;3.33;;;9.30;99.90;;;;;;4992680;28;20061;-54
2023/10/21 03:23:34;;;;;;;5.20;1.30;;;9.20;99.90;;;;;;4993449;28;20050;-54
2023/10/21 03:26:04;;;;;;;4.60;1.38;;;9.20;99.90;;;;;;4993972;28;20046;-54
2023/10/21 03:28:32;;;;;;;3.40;1.58;;;9.20;99.90;;;;;;4992417;28;20050;-54
2023/10/21 03:31:02;;;;;;;3.38;1.50;;;9.20;99.90;;;;;;4990526;28;20513;-54
2023/10/21 03:33:30;;;;;;;5.20;1.52;;;9.20;99.90;;;;;;4991116;28;20053;-54
2023/10/21 03:36:00;;;;;;;5.72;1.70;;;9.20;99.90;;;;;;4993409;28;20049;-54
2023/10/21 03:38:29;;;;;;;;;;;9.20;99.90;;;;;;4993907;28;20069;-54
2023/10/21 03:41:04;;;;;;;3.25;1.65;;;9.20;99.90;;;;;;4993497;28;19921;-54
2023/10/21 03:43:33;;;;;;;2.25;1.50;;;9.20;99.90;;;;;;4992492;28;20045;-54
2023/10/21 03:46:06;;;;;;;6.30;1.15;;;9.20;99.90;;;;;;4993493;28;20053;-55
2023/10/21 03:48:35;;;;;;;5.30;0.90;;;9.20;99.90;;;;;;4992939;28;20049;-54
2023/10/21 03:51:10;;;;;;;3.60;0.85;;;9.10;99.90;;;;;;4992881;28;20050;-54
2023/10/21 03:53:43;;;;;;;2.67;0.85;;;9.10;99.90;;;;;;4991953;28;20069;-55
2023/10/21 03:56:11;;;;;;;2.60;0.50;;;9.10;99.90;;;;;;4993177;28;20058;-54
2023/10/21 03:58:40;;;;;;;2.63;0.50;;;9.10;99.90;;;;;;5006123;28;20065;-55
2023/10/21 04:01:08;;;;;;;2.97;0.90;;;9.10;99.90;;;;;;4990745;28;20047;-54
2023/10/21 04:03:37;;;;;;;4.15;1.27;;;9.10;99.90;;;;;;4992993;28;20054;-54
2023/10/21 04:06:08;;;;;;;3.58;0.60;;;9.10;99.90;;;;;;4992459;28;20054;-54
2023/10/21 04:08:36;;;;;;;2.45;0.82;;;9.00;99.90;;;;;;4992917;28;20058;-54
2023/10/21 04:11:04;;;;;;;0.80;0.80;;;9.00;99.90;;;;;;4993084;28;20050;-54
2023/10/21 04:13:32;;;;;;;5.82;1.20;;;9.00;99.90;;;;;;4993038;28;20050;-54
2023/10/21 04:15:59;;;;;;;3.40;1.65;;;9.00;99.90;;;;;;4992859;28;20058;-54
2023/10/21 04:18:27;;;;;;;10.50;1.80;;;9.00;99.90;;;;;;4992645;28;20050;-54
2023/10/21 04:20:55;;;;;;;2.33;1.50;;;9.00;99.90;;;;;;4992565;28;20382;-54
2023/10/21 04:23:26;;;;;;;3.58;1.55;;;9.00;99.90;;;;;;4991587;28;20046;-54
2023/10/21 04:25:54;;;;;;;6.55;1.85;;;9.00;99.90;;;;;;4991150;28;20042;-54
2023/10/21 04:28:23;;;;;;;6.07;1.77;;;9.00;99.90;;;;;;4992435;28;20058;-55
2023/10/21 04:30:51;;;;;;;4.25;1.50;;;9.00;99.90;;;;;;4992681;28;20050;-54
2023/10/21 04:33:19;;;;;;;4.20;1.67;;;9.00;99.90;;;;;;4992644;28;20483;-55
2023/10/21 04:35:47;;;;;;;4.63;1.58;;;9.00;99.90;;;;;;4992390;28;20042;-54
2023/10/21 04:38:15;;;;;;;6.38;1.40;;;9.00;99.90;;;;;;4992570;28;20479;-54
2023/10/21 04:40:43;;;;;;;3.47;1.20;;;9.00;99.90;;;;;;4992427;28;20046;-54
2023/10/21 04:43:11;;;;;;;1.55;1.02;;;8.90;99.90;;;;;;4992537;28;20049;-54
2023/10/21 04:45:38;;;;;;;4.07;1.30;;;8.90;99.90;;;;;;4992339;28;20051;-54
2023/10/21 04:48:06;;;;;;;4.13;1.30;;;8.90;99.90;;;;;;4984646;28;20061;-54
2023/10/21 04:50:34;;;;;;;4.97;0.90;;;8.90;99.90;;;;;;4983002;28;20046;-54
2023/10/21 04:53:02;;;;;;;4.25;1.10;;;8.90;99.90;;;;;;4986951;28;20065;-54
2023/10/21 04:55:29;;;;;;;4.25;1.02;;;8.90;99.90;;;;;;4989024;28;20053;-54
2023/10/21 04:57:57;;;;;;;2.75;1.00;;;8.90;99.90;;;;;;4988733;28;20498;-54
2023/10/21 05:00:25;;;;;;;3.30;1.05;;;8.90;99.90;;;;;;4988693;28;20046;-55
2023/10/21 05:02:53;;;;;;;3.08;1.80;;;8.90;99.90;;;;;;4973864;28;20525;-54
2023/10/21 05:05:21;;;;;;;9.65;1.50;;;8.90;99.90;;;;;;4965301;28;20513;-54
2023/10/21 05:07:48;;;;;;;5.13;1.25;;;8.90;99.90;;;;;;4970488;28;20043;-54
2023/10/21 05:10:18;;;;;;;3.88;1.30;;;8.90;99.90;;;;;;4985475;28;20046;-55
2023/10/21 05:12:45;;;;;;;2.85;1.25;;;8.90;99.90;;;;;;4983487;28;20039;-55
2023/10/21 05:15:13;;;;;;;4.80;1.38;;;8.90;99.90;;;;;;4978433;28;20054;-55
2023/10/21 05:17:41;;;;;;;3.40;1.30;;;8.90;99.90;;;;;;4986780;28;20061;-55
2023/10/21 05:20:09;;;;;;;3.75;1.02;;;8.90;99.90;;;;;;4975998;28;20057;-55
2023/10/21 05:22:37;;;;;;;4.30;1.40;;;8.80;99.90;;;;;;4981469;28;20042;-59
2023/10/21 05:25:05;;;;;;;4.75;1.30;;;8.90;99.90;;;;;;4984719;28;20062;-56
2023/10/21 05:27:34;;;;;;;7.75;1.30;;;8.80;99.90;;;;;;4985380;28;20058;-55
2023/10/21 05:30:03;;;;;;;2.63;0.93;;;8.80;99.90;;;;;;4982228;28;20077;-54
2023/10/21 05:32:31;;;;;;;9.75;2.00;;;8.90;99.90;;;;;;4987839;28;20395;-54
2023/10/21 05:34:58;;;;;;;10.70;2.10;;;8.80;99.90;;;;;;4974907;28;20487;-55
2023/10/21 05:37:26;;;;;;;5.72;1.70;;;8.80;99.90;;;;;;4970538;28;20043;-55
2023/10/21 05:39:54;;;;;;;3.22;1.52;;;8.80;99.90;;;;;;4988339;28;20046;-55
2023/10/21 05:42:22;;;;;;;6.75;1.98;;;8.80;99.90;;;;;;4988429;28;20058;-54
2023/10/21 05:44:50;;;;;;;9.40;2.10;;;8.90;99.90;;;;;;4988354;28;20050;-54
2023/10/21 05:47:18;;;;;;;8.70;1.73;;;8.80;99.90;;;;;;4985615;28;20057;-55
2023/10/21 05:49:45;;;;;;;7.05;2.05;;;8.90;99.90;;;;;;4978770;28;20395;-54
2023/10/21 05:52:14;;;;;;;4.53;1.52;;;8.90;99.90;;;;;;4987058;28;20390;-55
2023/10/21 05:54:42;;;;;;;3.50;1.70;;;8.80;99.90;;;;;;4984419;28;20260;-54
2023/10/21 05:57:10;;;;;;;6.85;1.90;;;8.80;99.90;;;;;;4969520;28;20047;-55
2023/10/21 05:59:38;;;;;;;4.70;1.70;;;8.80;99.90;;;;;;4987838;28;20042;-54
2023/10/21 06:02:07;;;;;;;5.60;1.80;;;8.80;99.90;;;;;;4988090;28;20042;-54
2023/10/21 06:04:35;;;;;;;11.67;2.20;;;8.80;99.90;;;;;;4979844;28;20042;-54
2023/10/21 06:07:03;;;;;;;3.67;1.90;;;8.80;99.90;;;;;;4968592;28;20054;-54
2023/10/21 06:09:31;;;;;;;7.78;1.90;;;8.80;99.90;;;;;;4986810;28;20050;-54
2023/10/21 06:11:59;;;;;;;3.97;1.98;;;8.80;99.90;;;;;;4984581;28;20050;-55
2023/10/21 06:14:27;;;;;;;5.05;1.67;;;8.80;99.90;;;;;;4984910;28;20054;-54
2023/10/21 06:16:54;;;;;;;5.07;1.70;;;8.80;99.90;;;;;;4985626;28;20049;-54
2023/10/21 06:19:22;;;;;;;6.45;2.03;;;8.80;99.90;;;;;;4981643;28;20050;-54
2023/10/21 06:21:50;;;;;;;4.47;1.73;;;8.80;99.90;;;;;;4968454;28;20046;-54
2023/10/21 06:24:18;;;;;;;4.80;2.17;;;8.80;99.90;;;;;;4988330;28;20050;-54
2023/10/21 06:26:45;;;;;;;5.70;2.40;;;8.80;99.90;;;;;;4989424;28;20058;-54
2023/10/21 06:29:13;;;;;;;8.73;2.30;;;8.80;99.90;;;;;;4991389;28;20042;-54
2023/10/21 06:31:41;;;;;;;8.48;2.30;;;8.80;99.90;;;;;;4991776;28;20062;-54
2023/10/21 06:34:09;;;;;;;14.20;2.70;;;8.80;99.90;;;;;;4972429;28;20380;-54
2023/10/21 06:36:37;;;;;;;11.95;2.25;;;8.80;99.90;;;;;;4979263;28;20186;-54
2023/10/21 06:39:05;;;;;;;8.00;2.25;;;8.80;99.90;;;;;;4991223;28;20054;-54
2023/10/21 06:41:33;;;;;;;11.88;2.40;;;8.80;99.90;;;;;;4991530;28;20038;-54
2023/10/21 06:44:04;;;;;;;7.10;2.22;;;8.80;99.90;;;;;;4991221;28;20429;-54
2023/10/21 06:46:32;;;;;;;6.38;2.22;;;8.80;99.90;;;;;;4989399;28;20046;-54
2023/10/21 06:49:00;;;;;;;10.05;2.90;;;8.80;99.90;;;;;;4986815;28;20050;-55
2023/10/21 06:51:27;;;;;;;11.90;3.30;;;8.80;99.90;;;;;;4989337;28;20478;-54
2023/10/21 06:53:55;;;;;;;18.38;3.35;;;8.70;99.90;;;;;;4989147;28;20035;-54
2023/10/21 06:56:23;;;;;;;9.57;2.40;;;8.80;99.90;;;;;;4991393;28;20050;-54
2023/10/21 06:58:52;;;;;;;12.52;3.20;;;8.90;99.90;;;;;;4990891;28;20054;-56
2023/10/21 07:01:20;;;;;;;10.48;2.78;;;8.90;99.90;;;;;;4989688;28;20486;-54
2023/10/21 07:03:49;;;;;;;7.95;3.22;;;8.80;99.90;;;;;;4987385;28;20054;-55
2023/10/21 07:06:16;;;;;;;9.32;2.80;;;8.80;99.90;;;;;;4969473;28;20062;-54
2023/10/21 07:08:44;;;;;;;9.70;3.05;;;8.80;99.90;;;;;;4983013;28;20042;-55
2023/10/21 07:11:13;;;;;;;12.77;3.20;;;8.90;99.90;;;;;;4990635;28;20062;-54
2023/10/21 07:13:43;;;;;;;8.73;2.55;;;8.90;99.90;;;;;;4990551;28;20046;-54
2023/10/21 07:16:11;;;;;;;7.13;3.05;;;8.80;99.90;;;;;;4974330;28;20407;-54
2023/10/21 07:18:39;;;;;;;14.07;3.58;;;8.80;99.90;;;;;;4981940;28;20375;-54
2023/10/21 07:21:08;;;;;;;10.32;3.17;;;8.80;99.90;;;;;;4975355;28;20055;-54
2023/10/21 07:23:36;;;;;;;6.43;2.78;;;8.80;99.90;;;;;;4986064;28;20047;-54
2023/10/21 07:26:06;;;;;;;7.53;3.20;;;8.80;99.90;;;;;;4986787;28;20065;-54
2023/10/21 07:28:33;;;;;;;8.02;2.50;;;8.80;99.90;;;;;;4980684;28;20046;-54
2023/10/21 07:31:02;;;;;;;3.97;2.25;;;8.80;99.90;;;;;;4988333;28;20046;-55
2023/10/21 07:33:30;;;;;;;7.97;2.38;;;8.80;99.90;;;;;;4989921;28;20042;-54
2023/10/21 07:35:58;;;;;;;6.03;2.78;;;8.80;99.90;;;;;;4975737;28;20058;-54
2023/10/21 07:38:25;;;;;;;7.45;2.30;;;8.80;99.90;;;;;;4975232;28;20053;-54
2023/10/21 07:40:53;;;;;;;10.85;2.45;;;8.80;99.90;;;;;;4984806;28;20040;-54
2023/10/21 07:43:21;;;;;;;6.72;2.50;;;8.80;99.90;;;;;;4986268;28;20069;-54
2023/10/21 07:45:49;;;;;;;7.47;1.92;;;8.80;99.90;;;;;;4985631;28;20049;-54
2023/10/21 07:48:16;;;;;;;8.38;1.85;;;8.90;99.90;;;;;;4984099;28;20069;-55
2023/10/21 07:50:52;;;;;;;5.35;1.88;;;8.80;99.90;;;;;;4975629;28;20403;-55
2023/10/21 07:53:20;;;;;;;8.45;1.50;;;8.90;99.90;;;;;;4976988;28;20031;-55
2023/10/21 07:55:49;;;;;;;7.82;1.65;;;8.80;99.90;;;;;;4985147;28;20058;-55
2023/10/21 07:58:17;;;;;;;7.68;1.48;;;8.80;99.90;;;;;;4984377;28;20046;-55
2023/10/21 08:00:45;;;;;;;6.03;1.50;;;8.80;99.90;;;;;;4984900;28;20054;-55
2023/10/21 08:03:12;;;;;;;6.20;1.60;;;8.80;99.90;;;;;;4986329;28;20042;-55
2023/10/21 08:05:42;;;;;;;4.22;1.50;;;8.90;99.90;;;;;;4981704;28;20049;-55
2023/10/21 08:08:10;;;;;;;5.55;1.70;;;8.90;99.90;;;;;;4985516;28;20477;-55
2023/10/21 08:10:38;;;;;;;3.35;1.67;;;9.00;99.90;;;;;;4985369;28;20053;-55
2023/10/21 08:13:06;;;;;;;5.47;1.60;;;9.00;99.90;;;;;;4986128;28;20051;-55
2023/10/21 08:15:34;;;;;;;4.65;1.50;;;9.00;99.90;;;;;;4981235;28;20077;-55
2023/10/21 08:18:02;;;;;;;4.60;1.60;;;9.00;99.90;;;;;;4965563;28;20613;-55
2023/10/21 08:20:30;;;;;;;7.72;1.63;;;9.10;99.90;;;;;;4966699;28;20055;-55
2023/10/21 08:22:58;;;;;;;3.03;1.45;;;9.10;99.90;;;;;;4972381;28;20074;-56
2023/10/21 08:25:26;;;;;;;3.85;1.25;;;9.10;99.90;;;;;;4968989;28;20042;-61
2023/10/21 08:27:53;;;;;;;3.90;1.45;;;9.10;99.90;;;;;;4983033;28;20046;-56
2023/10/21 08:30:21;;;;;;;3.00;1.20;;;9.10;99.90;;;;;;4985375;28;20066;-55
2023/10/21 08:32:50;;;;;;;4.97;1.40;;;9.10;99.90;;;;;;4983268;28;20062;-55
2023/10/21 08:35:18;;;;;;;3.20;1.20;;;9.10;99.90;;;;;;4983599;28;20046;-55
2023/10/21 08:37:46;;;;;;;3.28;1.33;;;9.10;99.90;;;;;;4984766;28;20318;-56
2023/10/21 08:40:14;;;;;;;2.65;1.13;;;9.00;99.90;;;;;;4979106;28;20648;-55
2023/10/21 08:42:41;;;;;;;9.93;1.45;;;9.00;99.90;;;;;;4972516;28;20042;-55
2023/10/21 08:45:29;;;;;;;3.33;0.90;;;9.10;99.90;;;;;;4975120;28;20514;-55
2023/10/21 08:47:58;;;;;;;1.37;0.80;;;9.10;99.90;;;;;;4981151;28;20050;-55
2023/10/21 08:50:27;;;;;;;2.13;0.90;;;9.10;99.90;;;;;;4984131;28;20315;-55
2023/10/21 08:52:57;;;;;;;2.15;1.23;;;9.10;99.90;;;;;;4999526;28;20410;-55
2023/10/21 08:55:25;;;;;;;3.10;0.93;;;9.10;99.90;;;;;;4981860;28;20054;-55
2023/10/21 08:57:54;;;;;;;1.38;1.00;;;9.10;99.90;;;;;;4983849;28;20054;-55
2023/10/21 09:00:23;;;;;;;3.30;1.33;;;9.10;99.90;;;;;;4985808;28;20053;-55
2023/10/21 09:02:51;;;;;;;2.70;1.20;;;9.20;99.90;;;;;;4987667;28;20050;-55
2023/10/21 09:05:19;;;;;;;1.90;1.30;;;9.20;99.90;;;;;;4986716;28;20051;-56
2023/10/21 09:07:50;;;;;;;2.55;1.20;;;9.30;99.90;;;;;;4971322;28;20034;-56
2023/10/21 09:10:18;;;;;;;3.28;1.13;;;9.30;99.90;;;;;;4988714;28;20051;-55
2023/10/21 09:12:47;;;;;;;4.55;1.15;;;9.30;99.90;;;;;;4987678;28;20049;-55
2023/10/21 09:15:14;;;;;;;2.53;1.20;;;9.30;99.90;;;;;;4988790;28;20628;-55
2023/10/21 09:17:45;;;;;;;4.18;1.58;;;9.30;99.90;;;;;;4988301;28;20632;-55
2023/10/21 09:20:16;;;;;;;2.08;1.10;;;9.30;99.90;;;;;;4988056;28;20051;-56
2023/10/21 09:22:46;;;;;;;9.65;3.10;;;9.30;99.90;;;;;;4970999;28;20423;-55
2023/10/21 09:25:19;;;;;;;4.75;2.15;;;9.30;99.90;;;;;;4969921;28;20406;-55
2023/10/21 09:27:54;;;;;;;6.90;1.67;;;9.30;99.90;;;;;;4970962;28;20514;-55
2023/10/21 09:30:24;;;;;;;1.20;1.10;;;9.40;99.90;;;;;;4969024;28;20050;-55
2023/10/21 09:33:07;;;;;;;1.30;1.10;;;9.40;99.90;;;;;;4978120;28;20714;-55
2023/10/21 09:35:36;;;;;;;5.30;1.33;;;9.40;99.90;;;;;;4986338;28;20057;-56
2023/10/21 09:38:16;;;;;;;2.28;1.17;;;9.50;99.90;;;;;;4975146;28;20402;-55
2023/10/21 09:40:44;;;;;;;2.17;0.80;;;9.50;99.90;;;;;;4988323;28;20045;-55
2023/10/21 09:43:13;;;;;;;1.95;0.90;;;9.60;99.90;;;;;;4988402;28;20391;-55
2023/10/21 09:45:43;;;;;;;7.45;1.00;;;9.60;99.90;;;;;;4988365;28;20046;-55
2023/10/21 09:48:12;;;;;;;2.47;0.95;;;9.60;99.90;;;;;;4988343;28;20042;-55
2023/10/21 09:50:47;;;;;;;1.45;0.82;;;9.70;99.90;;;;;;4986802;28;20050;-55
2023/10/21 09:53:16;;;;;;;6.80;1.10;;;9.70;99.90;;;;;;4995301;28;20506;-55
2023/10/21 09:55:44;;;;;;;2.63;0.90;;;9.70;99.90;;;;;;4987339;28;20532;-55
2023/10/21 09:58:13;;;;;;;4.45;1.45;;;9.70;99.90;;;;;;4988311;28;20046;-55
2023/10/21 10:00:41;;;;;;;4.13;1.38;;;9.80;99.90;;;;;;4986625;28;20539;-55
2023/10/21 10:03:10;;;;;;;4.18;1.45;;;9.70;99.90;;;;;;4991916;28;20494;-55
2023/10/21 10:05:40;;;;;;;3.13;1.58;;;9.80;99.90;;;;;;4991321;28;20073;-56
2023/10/21 10:08:08;;;;;;;3.28;1.20;;;9.90;99.90;;;;;;4978569;28;20061;-55
2023/10/21 10:10:38;;;;;;;5.22;1.67;;;9.90;99.90;;;;;;4991671;28;20552;-55
2023/10/21 10:13:12;;;;;;;3.53;1.10;;;9.90;99.90;;;;;;4991569;28;20050;-55
2023/10/21 10:15:41;;;;;;;2.67;1.15;;;10.00;99.90;;;;;;4991882;28;20053;-55
2023/10/21 10:18:18;;;;;;;2.35;1.20;;;10.00;99.90;;;;;;4991688;28;20046;-55
2023/10/21 10:20:52;;;;;;;5.50;0.98;;;10.00;99.90;;;;;;4990585;28;20409;-56
2023/10/21 10:23:24;;;;;;;4.70;1.00;;;10.00;99.90;;;;;;4991521;28;20069;-55
2023/10/21 10:25:55;;;;;;;2.25;0.90;;;10.10;99.90;;;;;;4991841;28;20047;-55
2023/10/21 10:28:27;;;;;;;3.55;1.08;;;10.10;99.90;;;;;;4991356;28;20264;-55
2023/10/21 10:30:56;;;;;;;5.60;1.38;;;10.10;99.90;;;;;;4991480;28;20053;-55
2023/10/21 10:33:28;;;;;;;2.25;1.00;;;10.10;99.90;;;;;;4989983;28;20053;-56
2023/10/21 10:35:57;;;;;;;3.47;0.85;;;10.10;99.90;;;;;;4990062;28;20438;-55
2023/10/21 10:38:44;;;;;;;2.60;1.00;;;10.10;99.90;;;;;;4980162;28;20057;-55
2023/10/21 10:41:17;;;;;;;3.22;0.85;;;10.20;99.90;;;;;;4991423;28;20295;-55
2023/10/21 10:43:48;;;;;;;2.13;0.88;;;10.30;99.90;;;;;;4989834;28;20050;-55
2023/10/21 10:46:17;;;;;;;4.43;0.80;;;10.30;99.90;;;;;;4990355;28;20046;-56
2023/10/21 10:48:48;;;;;;;2.65;1.25;;;10.30;99.90;;;;;;4990852;28;20047;-55
2023/10/21 10:51:17;;;;;;;3.40;0.93;;;10.40;99.90;;;;;;4986741;28;20053;-55
2023/10/21 10:53:48;;;;;;;2.45;0.80;;;10.40;99.90;;;;;;4986656;28;20061;-56
2023/10/21 10:56:20;;;;;;;3.30;0.80;;;10.40;99.90;;;;;;4991134;28;20054;-56
2023/10/21 10:58:48;;;;;;;3.22;0.90;;;10.50;99.90;;;;;;4990404;28;20046;-56
2023/10/21 11:01:26;;;;;;;2.08;1.02;;;10.50;99.90;;;;;;4991066;28;20046;-56
2023/10/21 11:03:58;;;;;;;1.90;0.77;;;10.50;99.90;;;;;;4983462;28;20475;-56
2023/10/21 11:06:31;;;;;;;0.88;0.70;;;10.50;99.90;;;;;;4985634;28;20499;-56
2023/10/21 11:08:59;;;;;;;5.18;0.95;;;10.60;99.90;;;;;;4974356;28;20384;-56
2023/10/21 11:11:27;;;;;;;7.38;1.20;;;10.60;99.90;;;;;;4987880;28;20236;-56
2023/10/21 11:13:55;;;;;;;1.17;0.85;;;10.60;99.90;;;;;;4990544;28;20506;-55
2023/10/21 11:16:23;;;;;;;2.35;0.88;;;10.60;99.90;;;;;;4984479;28;20042;-56
2023/10/21 11:18:52;;;;;;;6.85;1.30;;;10.60;99.90;;;;;;4978111;28;20051;-55
2023/10/21 11:21:35;;;;;;;2.33;1.10;;;10.60;99.90;;;;;;4984749;28;20053;-56
2023/10/21 11:24:03;;;;;;;2.58;0.85;;;10.70;99.90;;;;;;4982221;28;20406;-56
2023/10/21 11:26:31;;;;;;;3.03;0.98;;;10.70;99.90;;;;;;4990749;28;20207;-56
2023/10/21 11:29:00;;;;;;;2.40;0.80;;;10.70;99.90;;;;;;4985525;28;20046;-56
2023/10/21 11:31:29;;;;;;;3.85;1.05;;;10.90;99.90;;;;;;4977138;28;20043;-56
2023/10/21 11:34:18;;;;;;;2.53;1.08;;;11.00;99.90;;;;;;4989975;28;20054;-56
2023/10/21 11:36:48;;;;;;;2.25;1.00;;;11.10;99.90;;;;;;4989645;28;20414;-56
2023/10/21 11:39:18;;;;;;;1.90;0.82;;;11.30;99.90;;;;;;4985711;28;20513;-56
2023/10/21 11:41:50;;;;;;;1.77;0.80;;;11.40;99.90;;;;;;4990271;28;20050;-55
2023/10/21 11:44:25;;;;;;;5.15;0.90;;;11.50;99.90;;;;;;4989395;28;20053;-56
2023/10/21 11:47:04;;;;;;;1.80;0.80;;;11.60;99.90;;;;;;4990027;28;20054;-56
2023/10/21 11:49:37;;;;;;;5.68;0.93;;;11.80;99.90;;;;;;4988635;28;20069;-56
2023/10/21 11:52:09;;;;;;;3.03;0.98;;;11.90;99.90;;;;;;4987785;28;20617;-56
2023/10/21 11:54:53;;;;;;;1.73;1.10;;;12.00;99.90;;;;;;4970368;28;20063;-56
2023/10/21 12:40:34;;;;;;;2.55;0.82;;;14.30;99.90;;;;;;4989210;28;20061;-56
2023/10/21 12:45:46;;;;;;;1.88;0.57;;;14.60;99.90;;;;;;4988022;28;20042;-57
2023/10/21 12:48:17;;;;;;;3.65;0.73;;;14.50;99.90;;;;;;4987550;28;20046;-56
2023/10/21 12:50:49;;;;;;;2.85;0.70;;;14.30;99.90;;;;;;4989307;28;20402;-57
2023/10/21 12:53:18;;;;;;;2.45;0.52;;;14.00;99.90;;;;;;4986884;28;20046;-56
2023/10/21 12:55:46;;;;;;;2.03;0.40;;;13.80;99.90;;;;;;4988949;28;20042;-56
2023/10/21 12:58:14;;;;;;;2.72;0.60;;;13.60;99.90;;;;;;4988712;28;20072;-57
2023/10/21 13:01:00;;;;;;;0.85;0.47;;;13.30;99.90;;;;;;4989053;28;20061;-56
2023/10/21 13:03:28;;;;;;;1.48;0.70;;;13.10;99.90;;;;;;4988534;28;20062;-56
2023/10/21 13:05:56;;;;;;;2.55;0.50;;;12.90;99.90;;;;;;4988551;28;20677;-57
2023/10/21 13:08:24;;;;;;;1.45;0.50;;;12.80;99.90;;;;;;4980996;28;20059;-56
2023/10/21 13:10:55;;;;;;;4.88;1.05;;;12.80;99.90;;;;;;4976209;28;20402;-57
2023/10/21 13:13:28;;;;;;;1.80;0.60;;;12.70;99.90;;;;;;4988608;28;20042;-56
2023/10/21 13:15:56;;;;;;;2.10;0.30;;;12.60;99.90;;;;;;4989007;28;20046;-57
2023/10/21 13:18:26;;;;;;;4.82;0.40;;;12.60;99.90;;;;;;4987783;28;20073;-57
2023/10/21 13:20:54;;;;;;;0.47;0.38;;;12.60;99.90;;;;;;4987163;28;20069;-56
2023/10/21 13:23:22;;;;;;;1.58;0.43;;;12.60;99.90;;;;;;4984328;28;20394;-57
2023/10/21 13:25:51;;;;;;;2.35;0.40;;;12.60;99.90;;;;;;4988800;28;20050;-57
2023/10/21 13:28:19;;;;;;;1.27;0.50;;;12.70;99.90;;;;;;4988495;28;20046;-58
2023/10/21 13:30:50;;;;;;;2.85;0.50;;;13.00;99.90;;;;;;4989090;28;20046;-57
2023/10/21 13:33:18;;;;;;;3.15;0.60;;;13.40;99.90;;;;;;4988072;28;20051;-57
2023/10/21 13:35:46;;;;;;;1.40;0.50;;;13.90;99.90;;;;;;4986878;28;20057;-57
2023/10/21 13:38:15;;;;;;;1.48;0.70;;;14.50;99.90;;;;;;4987860;28;20415;-57
2023/10/21 13:40:43;;;;;;;1.40;0.50;;;15.00;99.90;;;;;;4973147;28;20055;-57
2023/10/21 13:43:11;;;;;;;1.10;0.38;;;15.70;99.90;;;;;;4982536;28;20054;-57
2023/10/21 13:45:38;;;;;;;0.98;0.40;;;16.30;99.90;;;;;;4991987;28;20043;-58
2023/10/21 13:48:11;;;;;;;1.70;0.52;;;16.50;99.90;;;;;;4992188;28;20050;-57